Time;durP1;ratioP1;P1;durP2;ratioP2;P2;SDS_P1;SDS_P2;PMS_P1;PMS_P2;Temp;Humidity;BMP_temperature;BMP_pressure;BME280_temperature;BME280_humidity;BME280_pressure;Samples;Min_cycle;Max_cycle;Signal;HPM_P1;HPM_P2
2021/10/27 00:01:13;;;;;;;7.63;3.57;;;9.70;70.50;;;;;;5035574;28;20119;-85
2021/10/27 00:03:39;;;;;;;6.13;3.80;;;9.80;70.50;;;;;;5036086;28;20110;-85
2021/10/27 00:06:05;;;;;;;6.37;3.83;;;9.80;70.40;;;;;;5034219;28;20859;-84
2021/10/27 00:08:31;;;;;;;9.73;3.93;;;9.70;70.20;;;;;;5034961;28;20095;-85
2021/10/27 00:10:57;;;;;;;6.70;4.57;;;9.70;70.30;;;;;;5035662;28;20033;-85
2021/10/27 00:13:24;;;;;;;6.70;4.20;;;9.60;71.00;;;;;;5051500;28;20028;-85
2021/10/27 00:15:49;;;;;;;6.20;4.10;;;9.60;70.40;;;;;;5035475;28;20484;-85
2021/10/27 00:18:16;;;;;;;7.80;4.57;;;9.60;70.30;;;;;;5034630;28;20025;-85
2021/10/27 00:20:41;;;;;;;8.53;3.60;;;9.60;70.50;;;;;;5034677;28;20032;-85
2021/10/27 00:23:07;;;;;;;8.17;4.10;;;9.60;70.30;;;;;;5034812;28;20499;-85
2021/10/27 00:25:33;;;;;;;6.13;4.27;;;9.60;70.40;;;;;;5036188;28;20032;-85
2021/10/27 00:27:59;;;;;;;5.73;4.60;;;9.60;70.40;;;;;;5034041;28;20045;-85
2021/10/27 00:30:25;;;;;;;5.60;4.17;;;9.70;70.50;;;;;;5033405;28;20037;-85
2021/10/27 00:32:51;;;;;;;8.63;4.10;;;9.60;70.30;;;;;;5032819;28;20056;-85
2021/10/27 00:35:16;;;;;;;6.13;3.30;;;9.60;70.40;;;;;;5034309;28;20033;-84
2021/10/27 00:37:42;;;;;;;5.53;3.77;;;9.60;70.30;;;;;;5034235;28;20101;-85
2021/10/27 00:40:09;;;;;;;5.23;3.63;;;9.60;70.20;;;;;;5034327;28;20036;-85
2021/10/27 00:42:35;;;;;;;5.60;3.83;;;9.50;70.10;;;;;;5035022;28;20119;-85
2021/10/27 00:45:02;;;;;;;6.90;4.60;;;9.50;70.50;;;;;;5032744;28;20472;-85
2021/10/27 00:47:27;;;;;;;10.00;4.50;;;9.40;70.40;;;;;;5034216;28;20506;-85
2021/10/27 00:49:53;;;;;;;5.97;4.33;;;9.40;70.70;;;;;;5059460;28;20104;-85
2021/10/27 00:52:19;;;;;;;6.23;3.93;;;9.40;70.50;;;;;;5050063;28;20033;-85
2021/10/27 00:54:48;;;;;;;7.50;4.90;;;9.30;70.50;;;;;;5034700;28;20040;-85
2021/10/27 00:57:17;;;;;;;6.87;3.70;;;9.30;70.60;;;;;;5035200;28;20064;-85
2021/10/27 00:59:45;;;;;;;5.07;4.13;;;9.30;70.40;;;;;;5034970;28;20409;-85
2021/10/27 01:02:13;;;;;;;6.23;4.03;;;9.20;70.70;;;;;;5034453;28;20490;-85
2021/10/27 01:04:39;;;;;;;9.10;4.10;;;9.20;70.90;;;;;;5033772;28;20168;-85
2021/10/27 01:07:05;;;;;;;5.77;3.97;;;9.20;70.70;;;;;;5040249;28;20095;-85
2021/10/27 01:09:33;;;;;;;7.33;4.47;;;9.20;70.70;;;;;;5042943;28;20033;-85
2021/10/27 01:11:59;;;;;;;6.27;3.93;;;9.20;70.70;;;;;;5041464;28;20410;-85
2021/10/27 01:14:34;;;;;;;7.43;4.57;;;9.20;70.70;;;;;;5050503;28;20125;-85
2021/10/27 01:17:00;;;;;;;8.03;4.90;;;9.20;70.60;;;;;;5033008;28;20052;-84
2021/10/27 01:19:26;;;;;;;5.97;4.23;;;9.10;70.50;;;;;;5036895;28;20130;-85
2021/10/27 01:21:53;;;;;;;8.17;3.67;;;9.10;70.70;;;;;;5030000;28;20033;-85
2021/10/27 01:24:18;;;;;;;5.33;4.13;;;9.10;70.80;;;;;;5034316;28;20028;-85
2021/10/27 01:26:44;;;;;;;7.17;4.10;;;9.10;70.80;;;;;;5026130;28;20083;-84
2021/10/27 01:29:10;;;;;;;6.33;4.63;;;9.10;70.90;;;;;;5042435;28;20495;-85
2021/10/27 01:31:36;;;;;;;6.00;4.07;;;9.10;70.90;;;;;;5032622;28;20106;-85
2021/10/27 01:34:02;;;;;;;5.07;3.40;;;9.10;70.90;;;;;;5036409;28;20036;-84
2021/10/27 01:36:29;;;;;;;7.60;3.53;;;9.10;70.90;;;;;;5036523;28;20403;-85
2021/10/27 01:38:55;;;;;;;7.63;4.07;;;9.10;70.90;;;;;;5051092;28;20036;-85
2021/10/27 01:41:21;;;;;;;6.97;3.83;;;9.10;70.90;;;;;;5033489;28;21892;-84
2021/10/27 01:43:55;;;;;;;5.90;3.53;;;9.10;70.90;;;;;;5032721;28;20441;-85
2021/10/27 01:46:27;;;;;;;6.50;4.70;;;9.20;70.90;;;;;;5029795;28;20032;-85
2021/10/27 01:48:53;;;;;;;8.27;5.33;;;9.20;70.70;;;;;;5047042;28;20029;-86
2021/10/27 01:51:18;;;;;;;8.40;4.63;;;9.10;70.50;;;;;;5032752;28;20055;-85
2021/10/27 01:53:44;;;;;;;6.43;5.07;;;9.10;70.60;;;;;;5044736;28;20037;-86
2021/10/27 01:56:10;;;;;;;6.77;4.63;;;9.10;70.50;;;;;;5030760;28;20112;-85
2021/10/27 01:58:35;;;;;;;7.90;4.10;;;9.10;70.40;;;;;;5046779;28;20041;-85
2021/10/27 02:01:01;;;;;;;5.50;3.73;;;9.10;70.30;;;;;;5033122;28;20033;-85
2021/10/27 02:03:27;;;;;;;5.97;3.70;;;9.00;70.20;;;;;;5032203;28;20086;-86
2021/10/27 02:05:53;;;;;;;5.63;3.70;;;9.00;70.40;;;;;;5035072;28;20037;-85
2021/10/27 02:08:19;;;;;;;6.37;5.00;;;9.00;70.40;;;;;;5034991;28;20422;-85
2021/10/27 02:10:44;;;;;;;7.30;4.73;;;8.90;70.30;;;;;;5050674;28;20025;-85
2021/10/27 02:13:10;;;;;;;8.37;3.83;;;8.90;70.50;;;;;;5033647;28;20132;-85
2021/10/27 02:15:36;;;;;;;6.93;3.73;;;8.90;70.50;;;;;;5033578;28;20047;-85
2021/10/27 02:18:01;;;;;;;5.43;3.80;;;8.80;70.50;;;;;;5032218;28;20052;-85
2021/10/27 02:20:27;;;;;;;6.40;3.60;;;8.80;70.80;;;;;;5030896;28;20033;-85
2021/10/27 02:22:53;;;;;;;5.77;3.57;;;8.80;70.80;;;;;;5030967;28;20029;-85
2021/10/27 02:25:19;;;;;;;6.97;4.17;;;8.80;71.50;;;;;;5032773;28;20471;-85
2021/10/27 02:27:44;;;;;;;5.50;3.87;;;8.80;70.70;;;;;;5038570;28;20079;-85
2021/10/27 02:30:11;;;;;;;7.03;3.60;;;8.80;70.60;;;;;;5055027;28;20063;-85
2021/10/27 02:32:37;;;;;;;6.33;3.20;;;8.70;70.70;;;;;;5038072;28;20053;-85
2021/10/27 02:35:04;;;;;;;4.73;2.97;;;8.80;70.90;;;;;;5037702;28;20380;-85
2021/10/27 02:37:30;;;;;;;4.87;3.07;;;8.70;70.60;;;;;;5035749;28;20029;-85
2021/10/27 02:39:56;;;;;;;6.77;3.00;;;8.70;70.90;;;;;;5036891;28;20489;-84
2021/10/27 02:42:21;;;;;;;5.33;3.30;;;8.70;70.90;;;;;;5037683;28;20029;-86
2021/10/27 02:44:47;;;;;;;4.47;3.20;;;8.70;70.80;;;;;;5036337;28;20116;-84
2021/10/27 02:47:13;;;;;;;5.90;3.10;;;8.60;70.80;;;;;;5029363;28;20032;-84
2021/10/27 02:49:39;;;;;;;4.60;3.00;;;8.70;70.90;;;;;;5035850;28;20032;-85
2021/10/27 02:52:05;;;;;;;6.23;3.83;;;8.70;70.80;;;;;;5053438;28;20434;-85
2021/10/27 02:54:30;;;;;;;5.53;3.40;;;8.70;70.70;;;;;;5029922;28;20104;-85
2021/10/27 02:56:56;;;;;;;7.03;3.03;;;8.70;70.80;;;;;;5054312;28;20079;-85
2021/10/27 02:59:22;;;;;;;5.57;3.10;;;8.60;70.90;;;;;;5020323;28;20021;-85
2021/10/27 03:01:47;;;;;;;10.33;4.57;;;8.60;70.70;;;;;;5054332;28;20044;-85
2021/10/27 03:04:13;;;;;;;5.73;3.53;;;8.60;70.60;;;;;;5035562;28;20433;-86
2021/10/27 03:06:40;;;;;;;5.90;4.27;;;8.50;70.50;;;;;;5035334;28;20079;-85
2021/10/27 03:09:05;;;;;;;5.13;3.23;;;8.50;70.80;;;;;;5028286;28;20095;-84
2021/10/27 03:11:31;;;;;;;6.33;3.40;;;8.50;70.70;;;;;;5032802;28;20083;-85
2021/10/27 03:13:57;;;;;;;5.40;3.87;;;8.50;70.60;;;;;;5037225;28;20021;-84
2021/10/27 03:16:23;;;;;;;5.07;3.77;;;8.50;70.40;;;;;;5032983;28;20040;-84
2021/10/27 03:18:48;;;;;;;7.03;3.90;;;8.40;70.60;;;;;;5051767;28;20093;-84
2021/10/27 03:21:14;;;;;;;7.10;3.70;;;8.50;70.60;;;;;;5035641;28;20021;-84
2021/10/27 03:23:40;;;;;;;6.40;3.77;;;8.40;70.60;;;;;;5034565;28;20423;-85
2021/10/27 03:26:06;;;;;;;6.90;4.00;;;8.40;70.50;;;;;;5033579;28;20432;-85
2021/10/27 03:28:31;;;;;;;5.77;4.50;;;8.40;70.40;;;;;;5028590;28;20033;-84
2021/10/27 03:30:58;;;;;;;4.93;3.50;;;8.40;70.30;;;;;;5034340;28;20045;-85
2021/10/27 03:33:24;;;;;;;8.63;4.70;;;8.40;70.50;;;;;;5033309;28;20044;-85
2021/10/27 03:35:50;;;;;;;6.83;3.83;;;8.40;70.50;;;;;;5051000;28;20058;-85
2021/10/27 03:38:17;;;;;;;5.40;3.13;;;8.40;70.50;;;;;;5033707;28;20025;-84
2021/10/27 03:40:45;;;;;;;6.20;2.80;;;8.30;70.60;;;;;;5034098;28;20028;-85
2021/10/27 03:43:11;;;;;;;4.10;3.30;;;8.40;70.80;;;;;;5034817;28;20480;-86
2021/10/27 03:45:37;;;;;;;7.37;3.50;;;8.40;71.40;;;;;;5041815;28;20067;-85
2021/10/27 03:48:03;;;;;;;5.80;3.13;;;8.30;70.70;;;;;;5051195;28;20051;-86
2021/10/27 03:50:29;;;;;;;5.27;3.37;;;8.30;70.70;;;;;;5033508;28;20388;-85
2021/10/27 03:52:55;;;;;;;4.93;3.50;;;8.30;70.60;;;;;;5045687;28;20082;-85
2021/10/27 03:55:21;;;;;;;5.63;3.57;;;8.30;71.00;;;;;;5042136;28;20078;-85
2021/10/27 03:57:46;;;;;;;4.80;3.17;;;8.30;70.60;;;;;;5049846;28;20097;-85
2021/10/27 04:00:13;;;;;;;5.07;3.30;;;8.30;70.60;;;;;;5034757;28;20025;-85
2021/10/27 04:02:41;;;;;;;6.50;3.20;;;8.30;70.70;;;;;;5032971;28;20067;-85
2021/10/27 04:05:08;;;;;;;4.73;3.03;;;8.30;70.60;;;;;;5049458;28;20429;-85
2021/10/27 04:07:36;;;;;;;4.13;2.97;;;8.30;70.40;;;;;;5035504;28;20380;-84
2021/10/27 04:10:08;;;;;;;6.83;3.30;;;8.30;70.40;;;;;;5037522;28;20476;-85
2021/10/27 04:12:35;;;;;;;4.18;2.88;;;8.30;70.30;;;;;;5033917;28;20032;-85
2021/10/27 04:15:03;;;;;;;6.37;2.90;;;8.30;70.10;;;;;;5053226;28;20506;-85
2021/10/27 04:17:29;;;;;;;6.00;3.50;;;8.20;70.60;;;;;;5029373;28;20044;-84
2021/10/27 04:19:55;;;;;;;9.20;4.30;;;8.20;70.00;;;;;;5034076;28;20502;-84
2021/10/27 04:22:22;;;;;;;7.97;4.43;;;8.10;70.00;;;;;;5032888;28;20046;-84
2021/10/27 04:24:48;;;;;;;6.67;4.77;;;8.10;70.10;;;;;;5034950;28;20076;-84
2021/10/27 04:27:13;;;;;;;7.27;4.50;;;8.10;70.10;;;;;;5053259;28;20518;-84
2021/10/27 04:29:39;;;;;;;6.00;4.73;;;8.10;70.00;;;;;;5020231;28;20026;-84
2021/10/27 04:32:05;;;;;;;5.83;4.33;;;8.10;70.00;;;;;;5031047;28;20053;-84
2021/10/27 04:34:31;;;;;;;9.73;5.20;;;8.00;70.00;;;;;;5031557;28;20029;-84
2021/10/27 04:36:56;;;;;;;10.60;5.20;;;8.00;69.90;;;;;;5031642;28;20018;-84
2021/10/27 04:39:22;;;;;;;8.83;6.13;;;8.00;70.10;;;;;;5032165;28;20022;-84
2021/10/27 04:41:48;;;;;;;10.50;7.07;;;8.00;70.00;;;;;;5035777;28;20502;-83
2021/10/27 04:44:13;;;;;;;12.20;7.93;;;7.90;70.00;;;;;;5034161;28;20026;-84
2021/10/27 04:46:39;;;;;;;11.53;7.37;;;8.00;70.00;;;;;;5043462;28;20492;-84
2021/10/27 04:49:05;;;;;;;11.63;7.50;;;7.90;70.00;;;;;;5038407;28;20029;-85
2021/10/27 04:51:31;;;;;;;13.93;7.80;;;8.00;70.20;;;;;;5028245;28;20030;-87
2021/10/27 04:53:56;;;;;;;28.60;9.30;;;7.90;70.40;;;;;;5018256;28;20033;-86
2021/10/27 04:56:22;;;;;;;26.20;9.23;;;7.90;70.60;;;;;;5031342;28;20025;-87
2021/10/27 04:58:48;;;;;;;31.23;9.63;;;7.90;70.80;;;;;;5029603;28;20026;-86
2021/10/27 05:01:14;;;;;;;86.27;11.13;;;7.90;71.00;;;;;;5027745;28;20029;-87
2021/10/27 05:03:42;;;;;;;62.50;10.97;;;7.90;71.20;;;;;;5031047;28;20140;-86
2021/10/27 05:06:09;;;;;;;29.23;10.23;;;7.90;71.60;;;;;;5032751;28;20021;-87
2021/10/27 05:08:35;;;;;;;35.80;11.00;;;7.80;71.80;;;;;;5027293;28;20022;-85
2021/10/27 05:11:01;;;;;;;68.70;10.37;;;7.90;72.10;;;;;;5047771;28;20025;-86
2021/10/27 05:13:28;;;;;;;31.60;10.47;;;7.90;72.00;;;;;;5031688;28;20021;-87
2021/10/27 05:15:54;;;;;;;22.63;10.57;;;7.80;72.10;;;;;;5035622;28;20026;-85
2021/10/27 05:18:20;;;;;;;15.23;10.40;;;7.80;72.20;;;;;;5012519;28;20120;-86
2021/10/27 05:20:47;;;;;;;9.97;6.93;;;7.70;72.10;;;;;;5028149;28;20380;-86
2021/10/27 05:23:14;;;;;;;9.87;6.90;;;7.80;71.90;;;;;;5042885;28;20030;-87
2021/10/27 05:25:46;;;;;;;11.87;7.13;;;7.70;71.50;;;;;;5029883;28;20033;-86
2021/10/27 05:28:12;;;;;;;10.27;6.78;;;7.70;71.30;;;;;;5048215;28;20025;-86
2021/10/27 05:30:39;;;;;;;11.40;6.87;;;7.70;71.30;;;;;;5048889;28;20076;-86
2021/10/27 05:33:04;;;;;;;12.60;6.30;;;7.70;71.20;;;;;;5052432;28;20033;-86
2021/10/27 05:35:32;;;;;;;9.93;5.47;;;7.70;71.00;;;;;;5034418;28;20086;-86
2021/10/27 05:37:59;;;;;;;12.77;6.07;;;7.70;70.80;;;;;;5034472;28;20029;-86
2021/10/27 05:40:25;;;;;;;11.37;6.10;;;7.70;70.70;;;;;;5035033;28;20029;-86
2021/10/27 05:42:54;;;;;;;10.37;7.07;;;7.70;70.80;;;;;;5034608;28;20033;-87
2021/10/27 05:45:22;;;;;;;10.23;6.80;;;7.60;70.70;;;;;;5035016;28;20051;-86
2021/10/27 05:47:51;;;;;;;9.83;6.43;;;7.60;70.70;;;;;;5052116;28;20024;-86
2021/10/27 05:55:36;;;;;;;12.53;8.80;;;7.50;71.10;;;;;;5052685;28;20039;-86
2021/10/27 05:58:04;;;;;;;15.70;10.00;;;7.50;70.90;;;;;;5034381;28;20056;-86
2021/10/27 06:00:32;;;;;;;17.37;10.23;;;7.50;70.90;;;;;;5034279;28;20064;-87
2021/10/27 06:02:58;;;;;;;22.53;14.50;;;7.40;70.70;;;;;;5041897;28;20052;-86
2021/10/27 06:05:24;;;;;;;30.13;18.33;;;7.40;70.80;;;;;;5038072;28;20483;-86
2021/10/27 06:07:50;;;;;;;28.73;17.37;;;7.40;70.70;;;;;;5038065;28;20078;-87
2021/10/27 06:10:22;;;;;;;26.33;16.80;;;7.40;70.60;;;;;;5056182;28;20801;-86
2021/10/27 06:12:50;;;;;;;18.13;12.32;;;7.50;70.80;;;;;;5038485;28;20029;-86
2021/10/27 06:15:26;;;;;;;15.07;9.60;;;7.50;70.70;;;;;;5037654;28;20505;-86
2021/10/27 06:17:52;;;;;;;14.30;9.00;;;7.50;70.60;;;;;;5037924;28;20159;-86
2021/10/27 06:20:24;;;;;;;11.30;7.63;;;7.50;70.60;;;;;;5054678;28;20056;-86
2021/10/27 06:22:50;;;;;;;12.02;7.25;;;7.40;70.50;;;;;;5037296;28;20082;-86
2021/10/27 06:25:22;;;;;;;13.93;7.77;;;7.50;70.60;;;;;;5037990;28;20032;-86
2021/10/27 06:27:52;;;;;;;11.00;7.32;;;7.40;70.60;;;;;;5055702;28;20082;-86
2021/10/27 06:30:23;;;;;;;13.40;6.90;;;7.40;70.90;;;;;;5056154;28;20399;-86
2021/10/27 06:33:00;;;;;;;9.47;7.03;;;7.40;70.90;;;;;;5055256;28;20115;-86
2021/10/27 06:35:33;;;;;;;12.70;8.27;;;7.40;71.00;;;;;;5037223;28;20029;-86
2021/10/27 06:46:31;;;;;;;13.93;9.60;;;7.50;71.30;;;;;;5036033;28;20040;-87
2021/10/27 06:48:56;;;;;;;15.60;11.17;;;7.50;71.20;;;;;;5049561;28;20471;-86
2021/10/27 06:51:22;;;;;;;19.20;11.33;;;7.50;71.00;;;;;;5038059;28;20032;-86
2021/10/27 06:53:48;;;;;;;15.90;11.73;;;7.50;70.90;;;;;;5038181;28;20144;-87
2021/10/27 06:56:16;;;;;;;15.20;11.50;;;7.50;71.00;;;;;;5037118;28;20396;-86
2021/10/27 06:58:46;;;;;;;25.87;10.70;;;7.50;71.10;;;;;;5050219;28;20032;-86
2021/10/27 07:17:02;;;;;;;10.60;5.63;;;7.40;71.00;;;;;;5055207;28;20395;-86
2021/10/27 07:19:28;;;;;;;14.20;6.57;;;7.40;71.10;;;;;;5036580;28;20025;-86
2021/10/27 07:21:54;;;;;;;10.30;6.97;;;7.50;71.40;;;;;;5054181;28;20033;-87
2021/10/27 07:24:20;;;;;;;9.23;6.57;;;7.50;71.30;;;;;;5034603;28;20068;-86
2021/10/27 07:26:46;;;;;;;13.60;7.37;;;7.50;71.40;;;;;;5035822;28;20059;-87
2021/10/27 07:29:18;;;;;;;12.03;7.17;;;7.50;71.30;;;;;;5036620;28;20025;-86
2021/10/27 07:31:44;;;;;;;10.20;7.10;;;7.60;71.60;;;;;;5035857;28;20049;-86
2021/10/27 07:34:12;;;;;;;13.93;8.17;;;7.60;71.40;;;;;;5052177;28;20082;-86
2021/10/27 07:41:51;;;;;;;15.27;9.90;;;7.70;71.60;;;;;;5054482;28;20395;-86
2021/10/27 07:44:18;;;;;;;11.83;8.40;;;7.80;71.60;;;;;;5052803;28;20033;-86
2021/10/27 07:47:05;;;;;;;14.97;7.83;;;7.80;71.70;;;;;;5035473;28;20033;-86
2021/10/27 07:49:31;;;;;;;14.53;8.20;;;7.80;71.90;;;;;;5037010;28;20120;-86
2021/10/27 07:51:57;;;;;;;10.40;7.83;;;7.90;72.00;;;;;;5036140;28;20120;-86
2021/10/27 07:54:29;;;;;;;17.53;8.53;;;7.90;72.20;;;;;;5029093;28;20091;-87
2021/10/27 07:57:02;;;;;;;15.20;7.97;;;8.00;72.20;;;;;;5035837;28;20020;-86
2021/10/27 07:59:33;;;;;;;11.52;8.25;;;8.00;72.30;;;;;;5052872;28;20102;-86
2021/10/27 08:02:06;;;;;;;12.50;7.95;;;8.10;72.40;;;;;;5035785;28;20025;-86
2021/10/27 08:04:38;;;;;;;13.40;8.40;;;8.20;72.60;;;;;;5040007;28;21674;-86
2021/10/27 08:07:04;;;;;;;11.43;7.60;;;8.20;72.50;;;;;;5032244;28;20377;-87
2021/10/27 08:09:29;;;;;;;18.83;8.57;;;8.30;72.50;;;;;;5035768;28;20033;-86
2021/10/27 08:11:55;;;;;;;14.00;8.67;;;8.30;72.50;;;;;;5035307;28;20100;-86
2021/10/27 08:14:21;;;;;;;10.83;7.43;;;8.40;72.50;;;;;;5035310;28;20124;-87
2021/10/27 08:16:47;;;;;;;10.17;7.73;;;9.10;71.40;;;;;;5035142;28;20064;-87
2021/10/27 08:19:25;;;;;;;10.38;7.03;;;13.30;62.20;;;;;;5033739;28;20425;-88
2021/10/27 08:21:51;;;;;;;11.50;6.32;;;17.80;51.90;;;;;;5034218;28;20047;-88
2021/10/27 08:24:22;;;;;;;8.65;6.55;;;20.20;47.90;;;;;;5047066;28;20050;-88
2021/10/27 08:26:53;;;;;;;5.85;5.25;;;20.60;48.00;;;;;;5034329;28;20108;-86
2021/10/27 08:29:25;;;;;;;6.15;4.95;;;20.20;49.80;;;;;;5034597;28;20029;-86
2021/10/27 08:31:56;;;;;;;6.35;5.70;;;19.20;51.40;;;;;;5029235;28;20526;-85
2021/10/27 08:34:34;;;;;;;7.20;5.03;;;18.50;52.60;;;;;;5040194;28;20024;-86
2021/10/27 08:37:01;;;;;;;9.50;5.47;;;17.90;53.90;;;;;;5035294;28;20475;-87
2021/10/27 08:39:27;;;;;;;6.28;4.72;;;17.20;54.60;;;;;;5035242;28;20544;-86
2021/10/27 08:41:52;;;;;;;7.72;4.85;;;16.60;54.80;;;;;;5035379;28;20495;-87
2021/10/27 08:44:18;;;;;;;6.20;5.18;;;16.00;55.00;;;;;;5052819;28;20110;-87
2021/10/27 08:46:45;;;;;;;6.35;4.60;;;15.40;55.20;;;;;;5034864;28;20040;-87
2021/10/27 08:49:17;;;;;;;5.18;4.53;;;14.80;55.60;;;;;;5053175;28;20025;-87
2021/10/27 08:51:45;;;;;;;6.53;4.55;;;14.50;55.80;;;;;;5031446;28;20030;-87
2021/10/27 08:54:11;;;;;;;7.15;4.80;;;14.20;56.00;;;;;;5027509;28;20032;-87
2021/10/27 08:56:43;;;;;;;7.90;4.53;;;14.00;56.20;;;;;;5052198;28;20017;-87
2021/10/27 08:59:19;;;;;;;10.70;5.45;;;13.90;56.40;;;;;;5048908;28;20476;-88
2021/10/27 09:10:05;;;;;;;7.13;5.15;;;14.30;56.50;;;;;;5050895;28;20028;-88
2021/10/27 10:04:11;;;;;;;4.38;3.53;;;16.40;52.60;;;;;;5051293;28;20099;-87
2021/10/27 10:06:46;;;;;;;5.90;3.47;;;16.50;52.20;;;;;;5050866;28;20036;-87
2021/10/27 10:09:13;;;;;;;6.38;3.80;;;16.60;51.60;;;;;;5034300;28;20025;-87
2021/10/27 10:11:40;;;;;;;5.75;3.38;;;16.60;51.40;;;;;;5032664;28;20467;-87
2021/10/27 10:14:08;;;;;;;5.35;3.05;;;16.70;50.80;;;;;;5031146;28;20506;-87
2021/10/27 10:16:51;;;;;;;3.20;2.90;;;16.70;50.40;;;;;;5035344;28;20024;-86
2021/10/27 10:19:21;;;;;;;4.57;2.90;;;16.70;50.40;;;;;;5025076;28;20026;-87
2021/10/27 10:21:49;;;;;;;4.45;3.00;;;16.80;50.60;;;;;;5035760;28;20036;-84
2021/10/27 10:24:24;;;;;;;5.45;3.33;;;16.80;50.40;;;;;;5047827;28;20082;-86
2021/10/27 10:26:52;;;;;;;4.60;2.47;;;16.80;49.80;;;;;;5053850;28;20484;-86
2021/10/27 10:29:37;;;;;;;3.72;2.72;;;16.90;50.10;;;;;;5053326;28;20426;-88
2021/10/27 10:32:26;;;;;;;8.68;2.85;;;16.90;49.80;;;;;;5033499;28;20041;-87
2021/10/27 10:34:56;;;;;;;4.07;2.97;;;16.90;49.70;;;;;;5033970;28;20047;-88
2021/10/27 10:37:41;;;;;;;3.42;2.78;;;16.90;50.00;;;;;;5034081;28;20021;-88
2021/10/27 10:40:45;;;;;;;5.85;3.15;;;16.90;49.10;;;;;;5033570;28;20025;-88
2021/10/27 10:43:27;;;;;;;3.60;2.53;;;16.90;49.50;;;;;;5040240;28;20028;-88
2021/10/27 11:11:54;;;;;;;3.75;2.78;;;17.40;50.20;;;;;;5056276;28;20029;-87
2021/10/27 11:48:04;;;;;;;3.90;3.00;;;17.80;49.10;;;;;;5054524;28;20382;-86
2021/10/27 11:50:35;;;;;;;9.15;3.90;;;17.80;48.90;;;;;;5046266;28;20029;-86
2021/10/27 11:53:02;;;;;;;4.65;3.42;;;17.80;48.40;;;;;;5041301;28;20029;-86
2021/10/27 11:55:31;;;;;;;6.63;3.47;;;17.80;48.40;;;;;;5054372;28;20028;-86
2021/10/27 11:57:56;;;;;;;6.03;3.50;;;17.80;48.60;;;;;;5035776;28;20031;-86
2021/10/27 12:00:36;;;;;;;8.27;3.75;;;17.80;48.30;;;;;;5036077;28;20017;-86
2021/10/27 12:03:13;;;;;;;6.95;3.58;;;17.80;48.00;;;;;;5034296;28;20495;-86
2021/10/27 12:06:04;;;;;;;4.68;3.53;;;17.70;48.30;;;;;;5035671;28;20041;-86
2021/10/27 12:08:38;;;;;;;7.10;3.80;;;17.80;48.30;;;;;;5035491;28;20032;-86
2021/10/27 12:13:44;;;;;;;6.25;3.97;;;18.00;47.70;;;;;;5033758;28;20476;-87
2021/10/27 12:19:00;;;;;;;5.57;3.92;;;18.00;47.80;;;;;;5053523;28;20036;-86
2021/10/27 12:21:28;;;;;;;7.38;4.38;;;17.90;47.30;;;;;;5035944;28;20037;-86
2021/10/27 12:24:02;;;;;;;5.65;3.25;;;17.90;47.30;;;;;;5034922;28;20071;-86
2021/10/27 12:26:44;;;;;;;8.32;3.13;;;17.90;47.50;;;;;;5035707;28;20083;-87
2021/10/27 12:29:15;;;;;;;5.53;3.20;;;18.00;47.50;;;;;;5034795;28;20070;-86
2021/10/27 12:31:41;;;;;;;4.07;2.75;;;18.00;46.90;;;;;;5035539;28;20041;-86
2021/10/27 12:34:27;;;;;;;4.25;2.42;;;17.80;46.70;;;;;;5039803;28;20107;-85
2021/10/27 12:36:57;;;;;;;5.95;2.17;;;17.90;46.60;;;;;;5053196;28;20632;-86
2021/10/27 12:39:29;;;;;;;6.80;2.33;;;17.90;46.60;;;;;;5030580;28;20026;-86
2021/10/27 12:42:08;;;;;;;4.73;2.50;;;17.90;46.50;;;;;;5034030;28;20472;-86
2021/10/27 12:44:43;;;;;;;4.25;2.55;;;18.00;46.70;;;;;;5034778;28;20048;-86
2021/10/27 12:47:17;;;;;;;4.57;2.63;;;18.10;47.00;;;;;;5035163;28;20029;-86
2021/10/27 12:49:47;;;;;;;2.97;2.10;;;18.10;47.00;;;;;;5034966;28;20119;-86
2021/10/27 12:52:35;;;;;;;4.65;2.47;;;18.20;47.00;;;;;;5032539;28;20535;-86
2021/10/27 12:55:10;;;;;;;4.63;2.47;;;18.20;47.00;;;;;;5037657;28;20545;-86
2021/10/27 12:57:49;;;;;;;4.63;2.38;;;18.20;46.80;;;;;;5034738;28;20105;-86
2021/10/27 13:00:20;;;;;;;3.70;2.28;;;18.20;46.30;;;;;;5053872;28;20028;-86
2021/10/27 13:03:08;;;;;;;3.33;1.58;;;18.20;46.20;;;;;;5036141;28;20055;-86
2021/10/27 13:05:38;;;;;;;2.60;1.63;;;18.20;45.90;;;;;;5052162;28;20029;-86
2021/10/27 13:08:20;;;;;;;4.72;1.33;;;18.20;45.70;;;;;;5058164;28;20032;-86
2021/10/27 13:11:02;;;;;;;2.70;1.85;;;18.20;45.50;;;;;;5047304;28;20124;-86
2021/10/27 13:31:59;;;;;;;3.35;1.60;;;18.20;44.80;;;;;;5057295;28;20079;-86
2021/10/27 13:34:26;;;;;;;3.53;1.80;;;18.20;44.90;;;;;;5058944;28;20161;-86
2021/10/27 13:36:52;;;;;;;3.88;1.98;;;18.20;45.00;;;;;;5039349;28;20392;-86
2021/10/27 13:39:18;;;;;;;1.48;1.15;;;18.20;44.30;;;;;;5033286;28;20056;-85
2021/10/27 13:41:50;;;;;;;2.88;2.00;;;18.20;44.30;;;;;;5033374;28;20029;-86
2021/10/27 13:44:20;;;;;;;3.38;1.80;;;18.10;44.10;;;;;;5036222;28;20384;-86
2021/10/27 14:40:54;;;;;;;4.13;2.25;;;17.60;45.10;;;;;;5054742;28;20740;-87
2021/10/27 15:24:53;;;;;;;4.28;2.58;;;16.70;47.80;;;;;;5047543;28;20056;-87
2021/10/27 15:30:09;;;;;;;5.03;3.80;;;16.50;48.80;;;;;;5052165;28;20114;-87
2021/10/27 15:53:11;;;;;;;4.28;3.10;;;15.60;53.10;;;;;;5053776;28;20121;-86
2021/10/27 15:55:37;;;;;;;8.68;3.38;;;15.50;53.30;;;;;;5035896;28;20052;-87
2021/10/27 15:58:04;;;;;;;7.77;3.37;;;15.40;53.60;;;;;;5038414;28;20035;-87
2021/10/27 16:00:30;;;;;;;4.07;2.90;;;15.40;53.80;;;;;;5036372;28;20021;-87
2021/10/27 16:02:56;;;;;;;8.23;3.00;;;15.30;54.10;;;;;;5052122;28;20037;-87
2021/10/27 16:05:25;;;;;;;12.00;2.73;;;15.20;54.30;;;;;;5045282;28;20032;-87
2021/10/27 16:07:53;;;;;;;9.50;3.40;;;15.10;54.50;;;;;;5062552;28;20484;-87
2021/10/27 16:10:26;;;;;;;7.00;3.80;;;15.10;54.70;;;;;;5035436;28;20033;-86
2021/10/27 16:13:24;;;;;;;7.47;4.47;;;15.00;54.90;;;;;;5051410;28;20116;-87
2021/10/27 16:16:00;;;;;;;12.07;4.97;;;15.00;55.10;;;;;;5036025;28;20444;-88
2021/10/27 16:18:29;;;;;;;11.83;5.67;;;14.90;55.10;;;;;;5050874;28;20486;-87
2021/10/27 16:20:55;;;;;;;7.30;5.07;;;14.80;55.30;;;;;;5034640;28;20398;-87
2021/10/27 16:23:22;;;;;;;5.73;4.00;;;14.70;55.40;;;;;;5036143;28;20024;-86
2021/10/27 16:25:49;;;;;;;9.70;5.23;;;14.70;55.70;;;;;;5036825;28;20036;-87
2021/10/27 16:28:17;;;;;;;9.47;5.37;;;14.70;55.90;;;;;;5031348;28;20040;-87
2021/10/27 16:30:46;;;;;;;9.60;5.47;;;14.60;56.50;;;;;;5034416;28;20032;-87
2021/10/27 16:33:14;;;;;;;11.87;7.37;;;14.50;56.20;;;;;;5034652;28;20083;-87
2021/10/27 16:35:43;;;;;;;8.27;5.40;;;14.50;56.30;;;;;;5033872;28;20041;-87
2021/10/27 16:38:10;;;;;;;7.67;5.10;;;14.40;56.50;;;;;;5031912;28;20440;-87
2021/10/27 16:40:36;;;;;;;8.77;4.13;;;14.40;56.50;;;;;;5034851;28;20033;-86
2021/10/27 16:43:03;;;;;;;5.90;4.27;;;14.30;56.50;;;;;;5035920;28;20021;-86
2021/10/27 16:45:30;;;;;;;10.20;5.17;;;14.20;56.60;;;;;;5045844;28;20499;-87
2021/10/27 16:47:56;;;;;;;11.17;5.77;;;14.10;56.90;;;;;;5035137;28;20498;-86
2021/10/27 16:50:23;;;;;;;11.43;7.10;;;14.10;57.10;;;;;;5034928;28;20033;-86
2021/10/27 16:52:49;;;;;;;11.00;6.37;;;14.10;57.30;;;;;;5053039;28;20535;-87
2021/10/27 16:55:20;;;;;;;11.47;6.87;;;14.00;57.30;;;;;;5034043;28;20036;-87
2021/10/27 16:57:48;;;;;;;8.07;5.40;;;13.90;57.40;;;;;;5036092;28;20029;-86
2021/10/27 17:00:16;;;;;;;4.97;3.73;;;13.90;57.50;;;;;;5033406;28;20082;-87
2021/10/27 17:02:42;;;;;;;12.47;4.77;;;13.80;57.70;;;;;;5052613;28;20033;-86
2021/10/27 17:05:10;;;;;;;10.73;6.60;;;13.80;57.70;;;;;;5034127;28;20135;-88
2021/10/27 17:07:38;;;;;;;8.57;5.60;;;13.80;57.70;;;;;;5035087;28;20050;-87
2021/10/27 17:10:09;;;;;;;9.90;4.13;;;13.60;57.70;;;;;;5034442;28;20079;-89
2021/10/27 17:12:36;;;;;;;8.77;3.70;;;13.60;58.10;;;;;;5035092;28;20029;-88
2021/10/27 17:15:05;;;;;;;5.57;3.67;;;13.60;58.20;;;;;;5040054;28;20052;-88
2021/10/27 17:17:31;;;;;;;8.30;4.10;;;13.60;58.00;;;;;;5046321;28;20028;-88
2021/10/27 17:19:57;;;;;;;11.70;5.83;;;13.50;58.10;;;;;;5036082;28;20476;-88
2021/10/27 17:22:25;;;;;;;5.73;3.50;;;13.50;58.20;;;;;;5044404;28;20024;-88
2021/10/27 17:24:51;;;;;;;11.30;3.43;;;13.40;58.40;;;;;;5031897;28;20384;-88
2021/10/27 17:27:18;;;;;;;8.87;5.27;;;13.40;58.20;;;;;;5034136;28;20041;-88
2021/10/27 17:29:44;;;;;;;12.73;6.77;;;13.40;58.30;;;;;;5034628;28;20028;-89
2021/10/27 17:32:10;;;;;;;18.53;9.27;;;13.40;58.30;;;;;;5034176;28;20040;-88
2021/10/27 17:34:38;;;;;;;21.33;12.00;;;13.50;58.20;;;;;;5035036;28;20041;-88
2021/10/27 17:37:04;;;;;;;23.20;12.13;;;13.40;58.40;;;;;;5032732;28;20036;-89
2021/10/27 17:39:30;;;;;;;19.70;11.17;;;13.40;58.40;;;;;;5036393;28;20024;-88
2021/10/27 17:41:58;;;;;;;10.67;6.37;;;13.30;58.50;;;;;;5033530;28;20060;-89
2021/10/27 17:44:25;;;;;;;8.13;5.50;;;13.20;58.50;;;;;;5035025;28;20028;-87
2021/10/27 17:46:59;;;;;;;9.73;6.70;;;13.20;58.70;;;;;;5045071;28;20029;-87
2021/10/27 17:49:44;;;;;;;11.87;7.43;;;13.10;58.60;;;;;;5038362;28;20484;-88
2021/10/27 18:00:03;;;;;;;9.10;6.17;;;12.90;59.00;;;;;;5062282;28;20496;-88